Time;durP1;ratioP1;P1;durP2;ratioP2;P2;SDS_P1;SDS_P2;PMS_P1;PMS_P2;Temp;Humidity;BMP_temperature;BMP_pressure;BME280_temperature;BME280_humidity;BME280_pressure;Samples;Min_cycle;Max_cycle;Signal;HPM_P1;HPM_P2
2021/01/25 00:00:29;;;;;;;0.68;0.68;;;2.80;99.90;;;;;;4398875;32;20089;-74
2021/01/25 00:02:55;;;;;;;0.73;0.73;;;2.80;99.90;;;;;;4399000;32;20066;-72
2021/01/25 00:05:21;;;;;;;1.00;0.80;;;2.70;99.90;;;;;;4398433;32;20078;-74
2021/01/25 00:07:46;;;;;;;2.28;0.85;;;2.60;99.90;;;;;;4388713;32;20069;-73
2021/01/25 00:10:12;;;;;;;0.43;0.43;;;2.70;99.90;;;;;;4384570;32;20062;-72
2021/01/25 00:12:37;;;;;;;0.50;0.50;;;2.60;99.90;;;;;;4404187;32;20074;-74
2021/01/25 00:15:05;;;;;;;1.08;0.80;;;2.60;99.90;;;;;;4413168;32;20086;-74
2021/01/25 00:17:30;;;;;;;0.28;0.28;;;2.60;99.90;;;;;;4413936;32;20082;-74
2021/01/25 00:19:56;;;;;;;0.82;0.80;;;2.70;99.90;;;;;;4413029;32;20073;-74
2021/01/25 00:22:22;;;;;;;0.57;0.57;;;2.60;99.90;;;;;;4413289;32;20086;-74
2021/01/25 00:24:48;;;;;;;0.68;0.68;;;2.70;99.90;;;;;;4413428;32;20073;-74
2021/01/25 00:27:13;;;;;;;3.60;1.15;;;2.60;99.90;;;;;;4413382;32;20069;-74
2021/01/25 00:29:38;;;;;;;0.85;0.85;;;2.60;99.90;;;;;;4413652;32;20125;-74
2021/01/25 00:32:06;;;;;;;0.40;0.40;;;2.60;99.90;;;;;;4413547;32;20090;-73
2021/01/25 00:34:31;;;;;;;2.17;0.88;;;2.70;99.90;;;;;;4412961;32;20074;-74
2021/01/25 00:36:57;;;;;;;0.55;0.55;;;2.70;99.90;;;;;;4413140;32;20073;-74
2021/01/25 00:39:22;;;;;;;0.50;0.50;;;2.80;99.90;;;;;;4412877;32;20468;-74
2021/01/25 00:41:48;;;;;;;0.60;0.60;;;2.80;99.90;;;;;;4414131;32;20069;-74
2021/01/25 00:44:15;;;;;;;2.92;0.68;;;2.80;99.90;;;;;;4413312;32;20113;-74
2021/01/25 00:46:40;;;;;;;0.40;0.40;;;2.90;99.90;;;;;;4413137;32;20499;-74
2021/01/25 00:49:06;;;;;;;0.50;0.50;;;2.90;99.90;;;;;;4412550;32;20079;-74
2021/01/25 00:51:31;;;;;;;0.45;0.45;;;2.90;99.90;;;;;;4413162;32;20514;-74
2021/01/25 00:53:56;;;;;;;0.55;0.55;;;2.80;99.90;;;;;;4413160;32;20086;-74
2021/01/25 00:56:22;;;;;;;0.90;0.90;;;2.70;99.90;;;;;;4413264;32;20069;-73
2021/01/25 00:58:48;;;;;;;0.62;0.62;;;2.70;99.90;;;;;;4414388;32;20135;-73
2021/01/25 01:01:14;;;;;;;0.70;0.70;;;2.70;99.90;;;;;;4416811;32;20070;-74
2021/01/25 01:03:39;;;;;;;0.60;0.60;;;2.70;99.90;;;;;;4416879;32;20169;-74
2021/01/25 01:06:05;;;;;;;1.00;0.93;;;2.70;99.90;;;;;;4415373;32;20466;-74
2021/01/25 01:08:30;;;;;;;2.12;1.92;;;2.70;99.90;;;;;;4401944;32;20226;-74
2021/01/25 01:10:56;;;;;;;0.60;0.60;;;2.70;99.90;;;;;;4401214;32;20091;-74
2021/01/25 01:13:21;;;;;;;0.80;0.80;;;2.80;99.90;;;;;;4415537;32;20098;-74
2021/01/25 01:15:47;;;;;;;0.77;0.73;;;2.70;99.90;;;;;;4417213;32;20066;-73
2021/01/25 01:18:12;;;;;;;1.02;0.93;;;2.70;99.90;;;;;;4415611;32;20508;-74
2021/01/25 01:20:38;;;;;;;0.30;0.30;;;2.70;99.90;;;;;;4416475;32;20077;-74
2021/01/25 01:23:03;;;;;;;0.50;0.50;;;2.70;99.90;;;;;;4415770;32;20066;-73
2021/01/25 01:25:29;;;;;;;0.32;0.32;;;2.80;99.90;;;;;;4416100;32;20621;-74
2021/01/25 01:27:54;;;;;;;0.40;0.40;;;2.70;99.90;;;;;;4416653;32;20058;-74
2021/01/25 01:30:20;;;;;;;2.20;1.25;;;2.80;99.90;;;;;;4416010;32;20916;-74
2021/01/25 01:32:46;;;;;;;0.68;0.68;;;2.80;99.90;;;;;;4416143;32;20125;-74
2021/01/25 01:35:11;;;;;;;0.50;0.50;;;2.80;99.90;;;;;;4416748;32;20081;-74
2021/01/25 01:37:37;;;;;;;0.43;0.43;;;2.70;99.90;;;;;;4415936;32;20062;-74
2021/01/25 01:40:05;;;;;;;0.50;0.50;;;2.70;99.90;;;;;;4417082;32;20086;-74
2021/01/25 01:42:31;;;;;;;4.85;0.85;;;2.70;99.90;;;;;;4415486;32;20090;-74
2021/01/25 01:44:56;;;;;;;1.17;0.73;;;2.70;99.90;;;;;;4416505;32;20121;-74
2021/01/25 01:47:22;;;;;;;0.47;0.47;;;2.70;99.90;;;;;;4415046;32;20066;-73
2021/01/25 01:49:50;;;;;;;0.75;0.75;;;2.50;99.90;;;;;;4415455;32;20533;-73
2021/01/25 01:52:15;;;;;;;2.05;0.70;;;2.50;99.90;;;;;;4415425;32;20514;-74
2021/01/25 01:54:41;;;;;;;4.35;0.90;;;2.50;99.90;;;;;;4415738;32;20074;-74
2021/01/25 01:57:08;;;;;;;0.62;0.62;;;2.60;99.90;;;;;;4415428;32;20132;-74
2021/01/25 01:59:33;;;;;;;0.98;0.98;;;2.60;99.90;;;;;;4415825;32;20074;-74
2021/01/25 02:01:59;;;;;;;0.45;0.45;;;2.50;99.90;;;;;;4415567;32;20467;-73
2021/01/25 02:04:26;;;;;;;2.25;1.55;;;2.50;99.90;;;;;;4415324;32;20086;-74
2021/01/25 02:06:53;;;;;;;1.85;1.15;;;2.50;99.90;;;;;;4412617;32;20520;-74
2021/01/25 02:09:19;;;;;;;0.45;0.45;;;2.50;99.90;;;;;;4400721;32;20130;-74
2021/01/25 02:11:45;;;;;;;0.50;0.50;;;2.50;99.90;;;;;;4403489;32;20069;-74
2021/01/25 02:14:11;;;;;;;0.70;0.70;;;2.40;99.90;;;;;;4415188;32;20061;-74
2021/01/25 02:16:39;;;;;;;0.65;0.65;;;2.50;99.90;;;;;;4415178;32;20086;-73
2021/01/25 02:19:08;;;;;;;2.10;1.15;;;2.40;99.90;;;;;;4414689;32;20121;-74
2021/01/25 02:21:33;;;;;;;0.57;0.52;;;2.40;99.90;;;;;;4415303;32;20062;-74
2021/01/25 02:24:23;;;;;;;0.60;0.60;;;2.40;99.90;;;;;;4415483;32;20519;-74
2021/01/25 02:27:06;;;;;;;0.50;0.50;;;2.50;99.90;;;;;;4414166;32;20070;-74
2021/01/25 02:29:32;;;;;;;1.75;0.77;;;2.50;99.90;;;;;;4415646;32;20099;-74
2021/01/25 02:31:58;;;;;;;0.60;0.60;;;2.50;99.90;;;;;;4414739;32;20078;-74
2021/01/25 02:34:25;;;;;;;0.52;0.52;;;2.50;99.90;;;;;;4414987;32;20066;-74
2021/01/25 02:36:51;;;;;;;0.40;0.40;;;2.40;99.90;;;;;;4414790;32;20124;-73
2021/01/25 02:39:18;;;;;;;0.70;0.47;;;2.30;99.90;;;;;;4414991;32;20078;-74
2021/01/25 02:41:43;;;;;;;0.55;0.55;;;2.30;99.90;;;;;;4415936;32;20069;-74
2021/01/25 02:44:11;;;;;;;0.60;0.60;;;2.30;99.90;;;;;;4415416;32;20077;-74
2021/01/25 02:46:37;;;;;;;3.60;0.75;;;2.30;99.90;;;;;;4407082;32;20063;-74
2021/01/25 02:49:03;;;;;;;0.50;0.50;;;2.30;99.90;;;;;;4400411;32;20490;-74
2021/01/25 02:51:28;;;;;;;0.57;0.57;;;2.20;99.90;;;;;;4400259;32;20125;-74
2021/01/25 02:53:54;;;;;;;0.37;0.37;;;2.10;99.90;;;;;;4399955;32;20388;-74
2021/01/25 02:56:19;;;;;;;0.40;0.40;;;2.10;99.90;;;;;;4400240;32;20078;-74
2021/01/25 02:58:46;;;;;;;1.25;0.70;;;2.10;99.90;;;;;;4400120;32;20132;-74
2021/01/25 03:01:11;;;;;;;2.15;0.75;;;2.10;99.90;;;;;;4399112;32;20453;-74
2021/01/25 03:03:38;;;;;;;0.35;0.35;;;2.00;99.90;;;;;;4399739;32;20105;-74
2021/01/25 03:06:04;;;;;;;0.30;0.30;;;2.00;99.90;;;;;;4400355;32;20062;-74
2021/01/25 03:08:29;;;;;;;7.37;1.37;;;2.00;99.90;;;;;;4385199;32;20401;-74
2021/01/25 03:10:55;;;;;;;0.50;0.50;;;2.00;99.90;;;;;;4384460;32;20516;-74
2021/01/25 03:13:29;;;;;;;0.50;0.50;;;2.10;99.90;;;;;;4415275;32;20499;-74
2021/01/25 03:15:57;;;;;;;0.70;0.68;;;2.10;99.90;;;;;;4414928;32;20505;-74
2021/01/25 03:18:24;;;;;;;1.05;0.80;;;2.00;99.90;;;;;;4414065;32;20124;-74
2021/01/25 03:20:51;;;;;;;0.35;0.35;;;2.00;99.90;;;;;;4414693;32;20459;-74
2021/01/25 03:23:17;;;;;;;0.60;0.60;;;2.10;99.90;;;;;;4413827;32;20422;-74
2021/01/25 03:25:43;;;;;;;0.70;0.70;;;2.10;99.90;;;;;;4414242;32;20074;-74
2021/01/25 03:28:09;;;;;;;3.70;1.48;;;2.20;99.90;;;;;;4415155;32;20066;-74
2021/01/25 03:30:35;;;;;;;0.47;0.47;;;2.20;99.90;;;;;;4415334;32;20117;-74
2021/01/25 03:33:01;;;;;;;0.35;0.35;;;2.40;99.90;;;;;;4415244;32;20081;-74
2021/01/25 03:35:26;;;;;;;0.40;0.40;;;2.30;99.90;;;;;;4413794;32;20074;-74
2021/01/25 03:37:52;;;;;;;2.50;1.25;;;2.30;99.90;;;;;;4414159;32;20142;-74
2021/01/25 03:40:17;;;;;;;1.48;0.85;;;2.40;99.90;;;;;;4413966;32;20524;-73
2021/01/25 03:42:43;;;;;;;0.40;0.40;;;2.40;99.90;;;;;;4414038;32;20146;-74
2021/01/25 03:45:09;;;;;;;0.40;0.40;;;2.30;99.90;;;;;;4414999;32;20124;-74
2021/01/25 03:47:34;;;;;;;0.43;0.43;;;2.30;99.90;;;;;;4413597;32;20139;-74
2021/01/25 03:50:00;;;;;;;0.43;0.43;;;2.30;99.90;;;;;;4413917;32;20061;-74
2021/01/25 03:52:25;;;;;;;0.60;0.60;;;2.30;99.90;;;;;;4413481;32;20073;-74
2021/01/25 03:54:51;;;;;;;0.40;0.40;;;2.30;99.90;;;;;;4414105;32;20069;-74
2021/01/25 03:57:17;;;;;;;0.37;0.37;;;2.30;99.90;;;;;;4413824;32;20438;-74
2021/01/25 03:59:43;;;;;;;0.50;0.50;;;2.20;99.90;;;;;;4413665;32;20069;-74
2021/01/25 04:02:08;;;;;;;0.62;0.62;;;2.30;99.90;;;;;;4414053;32;20077;-74
2021/01/25 04:04:34;;;;;;;0.65;0.65;;;2.30;99.90;;;;;;4414174;32;20066;-74
2021/01/25 04:06:59;;;;;;;3.25;0.98;;;2.40;99.90;;;;;;4408942;32;20085;-74
2021/01/25 04:09:25;;;;;;;0.50;0.50;;;2.40;99.90;;;;;;4399036;32;20079;-73
2021/01/25 04:11:50;;;;;;;0.70;0.70;;;2.40;99.90;;;;;;4403807;32;20221;-74
2021/01/25 04:14:16;;;;;;;1.98;1.37;;;2.40;99.90;;;;;;4413973;32;20066;-74
2021/01/25 04:16:41;;;;;;;3.83;1.17;;;2.40;99.90;;;;;;4414013;32;20487;-74
2021/01/25 04:19:07;;;;;;;0.60;0.60;;;2.30;99.90;;;;;;4412960;32;20460;-74
2021/01/25 04:21:32;;;;;;;0.60;0.60;;;2.30;99.90;;;;;;4413670;32;20073;-74
2021/01/25 04:23:59;;;;;;;0.88;0.77;;;2.40;99.90;;;;;;4414030;32;20116;-74
2021/01/25 04:26:24;;;;;;;0.40;0.40;;;2.40;99.90;;;;;;4414458;32;20082;-74
2021/01/25 04:28:50;;;;;;;0.43;0.43;;;2.40;99.90;;;;;;4414502;32;20057;-74
2021/01/25 04:31:16;;;;;;;0.47;0.47;;;2.50;99.90;;;;;;4415115;32;20570;-74
2021/01/25 04:33:41;;;;;;;0.62;0.62;;;2.50;99.90;;;;;;4413826;32;20492;-74
2021/01/25 04:36:07;;;;;;;0.30;0.30;;;2.40;99.90;;;;;;4416065;32;20062;-74
2021/01/25 04:38:33;;;;;;;0.40;0.40;;;2.50;99.90;;;;;;4417877;32;20117;-74
2021/01/25 04:40:59;;;;;;;0.60;0.60;;;2.50;99.90;;;;;;4415713;32;20062;-74
2021/01/25 04:43:25;;;;;;;0.60;0.60;;;2.40;99.90;;;;;;4416586;32;20468;-74
2021/01/25 04:45:53;;;;;;;0.50;0.50;;;2.30;99.90;;;;;;4418081;32;20090;-74
2021/01/25 04:48:20;;;;;;;0.80;0.80;;;2.40;99.90;;;;;;4415347;32;20091;-74
2021/01/25 04:50:47;;;;;;;0.75;0.75;;;2.40;99.90;;;;;;4416218;32;20483;-74
2021/01/25 04:53:14;;;;;;;3.50;1.00;;;2.40;99.90;;;;;;4416159;32;20065;-74
2021/01/25 04:55:41;;;;;;;0.90;0.90;;;2.40;99.90;;;;;;4416126;32;20409;-74
2021/01/25 04:58:07;;;;;;;1.10;0.75;;;2.50;99.90;;;;;;4415891;32;20061;-74
2021/01/25 05:00:32;;;;;;;0.68;0.68;;;2.50;99.90;;;;;;4416614;32;20194;-74
2021/01/25 05:02:58;;;;;;;0.45;0.45;;;2.50;99.90;;;;;;4416044;32;20086;-74
2021/01/25 05:05:24;;;;;;;0.43;0.43;;;2.30;99.90;;;;;;4416490;32;20069;-74
2021/01/25 05:07:50;;;;;;;0.68;0.68;;;2.20;99.90;;;;;;4406065;32;20090;-74
2021/01/25 05:10:15;;;;;;;0.52;0.52;;;2.30;99.90;;;;;;4401114;32;20538;-74
2021/01/25 05:12:46;;;;;;;4.57;1.62;;;2.30;99.90;;;;;;4401475;32;20070;-74
2021/01/25 05:15:23;;;;;;;0.70;0.70;;;2.30;99.90;;;;;;4401199;32;20074;-74
2021/01/25 05:17:48;;;;;;;1.48;1.27;;;2.30;99.90;;;;;;4400388;32;20401;-74
2021/01/25 05:20:14;;;;;;;2.92;0.95;;;2.30;99.90;;;;;;4400733;32;20070;-74
2021/01/25 05:22:39;;;;;;;5.60;1.67;;;2.20;99.90;;;;;;4400279;32;20070;-74
2021/01/25 05:25:08;;;;;;;2.65;0.60;;;2.20;99.90;;;;;;4401541;32;20074;-74
2021/01/25 05:27:34;;;;;;;0.82;0.80;;;2.30;99.90;;;;;;4400741;32;20082;-74
2021/01/25 05:30:10;;;;;;;0.40;0.40;;;2.30;99.90;;;;;;4400852;32;20134;-74
2021/01/25 05:32:53;;;;;;;1.80;1.40;;;2.30;99.90;;;;;;4400716;32;20070;-74
2021/01/25 05:35:22;;;;;;;0.60;0.60;;;2.40;99.90;;;;;;4401658;32;20570;-74
2021/01/25 05:37:54;;;;;;;0.95;0.60;;;2.40;99.90;;;;;;4400277;32;20059;-74
2021/01/25 05:40:22;;;;;;;0.45;0.45;;;2.40;99.90;;;;;;4401054;32;20117;-74
2021/01/25 05:42:47;;;;;;;1.20;1.10;;;2.40;99.90;;;;;;4400557;32;20082;-74
2021/01/25 05:45:13;;;;;;;0.62;0.62;;;2.40;99.90;;;;;;4400364;32;20082;-74
2021/01/25 05:47:44;;;;;;;0.88;0.88;;;2.40;99.90;;;;;;4400827;32;20117;-74
2021/01/25 05:50:11;;;;;;;;;;;2.40;99.90;;;;;;4401569;32;20167;-74
2021/01/25 05:52:42;;;;;;;0.50;0.50;;;2.40;99.90;;;;;;4401034;32;19942;-74
2021/01/25 05:55:08;;;;;;;1.08;0.98;;;2.40;99.90;;;;;;4400256;32;20143;-74
2021/01/25 05:57:33;;;;;;;0.52;0.52;;;2.30;99.90;;;;;;4401341;32;20062;-74
2021/01/25 05:59:59;;;;;;;0.62;0.62;;;2.40;99.90;;;;;;4400865;32;20061;-74
2021/01/25 06:02:25;;;;;;;1.75;0.93;;;2.40;99.90;;;;;;4399749;32;20399;-74
2021/01/25 06:04:50;;;;;;;0.57;0.57;;;2.40;99.90;;;;;;4408879;32;20089;-73
2021/01/25 06:07:16;;;;;;;0.65;0.65;;;2.40;99.90;;;;;;4409372;32;20058;-74
2021/01/25 06:09:52;;;;;;;1.35;0.95;;;2.40;99.90;;;;;;4410758;32;20136;-74
2021/01/25 06:12:26;;;;;;;4.43;0.98;;;2.40;99.90;;;;;;4407344;32;20133;-74
2021/01/25 06:15:01;;;;;;;1.42;0.75;;;2.30;99.90;;;;;;4400491;32;20086;-74
2021/01/25 06:17:28;;;;;;;3.72;1.60;;;2.30;99.90;;;;;;4400458;32;20050;-74
2021/01/25 06:19:54;;;;;;;3.00;1.23;;;2.30;99.90;;;;;;4400264;32;20536;-74
2021/01/25 06:22:20;;;;;;;0.62;0.62;;;2.30;99.90;;;;;;4400350;32;20050;-74
2021/01/25 06:24:46;;;;;;;0.85;0.70;;;2.30;99.90;;;;;;4401379;32;20483;-74
2021/01/25 06:27:14;;;;;;;1.25;0.90;;;2.30;99.90;;;;;;4399984;32;20132;-74
2021/01/25 06:29:40;;;;;;;0.40;0.40;;;2.30;99.90;;;;;;4400166;32;20062;-74
2021/01/25 06:32:10;;;;;;;0.40;0.40;;;2.40;99.90;;;;;;4400012;32;20071;-74
2021/01/25 06:34:37;;;;;;;1.08;1.00;;;2.40;99.90;;;;;;4399573;32;20074;-74
2021/01/25 06:37:05;;;;;;;0.73;0.73;;;2.40;99.90;;;;;;4399533;32;20059;-74
2021/01/25 06:39:31;;;;;;;0.85;0.85;;;2.40;99.90;;;;;;4400228;32;20074;-72
2021/01/25 06:42:05;;;;;;;0.95;0.77;;;2.40;99.90;;;;;;4400624;32;20133;-74
2021/01/25 06:44:34;;;;;;;0.45;0.45;;;2.40;99.90;;;;;;4400027;32;20065;-72
2021/01/25 06:47:03;;;;;;;3.42;1.33;;;2.40;99.90;;;;;;4400371;32;20057;-75
2021/01/25 06:49:30;;;;;;;1.17;0.80;;;2.30;99.90;;;;;;4400143;32;20065;-74
2021/01/25 06:51:56;;;;;;;1.12;1.02;;;2.30;99.90;;;;;;4399642;32;20075;-74
2021/01/25 06:54:24;;;;;;;8.63;1.40;;;2.20;99.90;;;;;;4399411;32;20070;-74
2021/01/25 06:56:55;;;;;;;0.70;0.70;;;2.30;99.90;;;;;;4400322;32;20058;-74
2021/01/25 06:59:22;;;;;;;0.88;0.88;;;2.20;99.90;;;;;;4414328;32;20121;-74
2021/01/25 07:01:51;;;;;;;0.50;0.50;;;2.10;99.90;;;;;;4415197;32;20065;-74
2021/01/25 07:04:19;;;;;;;0.70;0.70;;;2.20;99.90;;;;;;4414828;32;20485;-74
2021/01/25 07:06:51;;;;;;;0.60;0.60;;;2.20;99.90;;;;;;4411279;32;20582;-74
2021/01/25 07:09:33;;;;;;;2.17;1.40;;;2.20;99.90;;;;;;4398977;32;20082;-74
2021/01/25 07:12:00;;;;;;;1.30;1.20;;;2.20;99.90;;;;;;4405646;32;20065;-74
2021/01/25 07:14:28;;;;;;;0.95;0.95;;;2.10;99.90;;;;;;4414693;32;20086;-74
2021/01/25 07:16:56;;;;;;;2.37;0.90;;;2.10;99.90;;;;;;4414773;32;20409;-74
2021/01/25 07:19:22;;;;;;;0.60;0.60;;;2.20;99.90;;;;;;4414276;32;20456;-74
2021/01/25 07:21:49;;;;;;;0.80;0.80;;;2.20;99.90;;;;;;4414467;32;20079;-74
2021/01/25 07:24:20;;;;;;;3.97;1.42;;;2.20;99.90;;;;;;4406213;32;20594;-74
2021/01/25 07:26:50;;;;;;;2.15;1.40;;;2.10;99.90;;;;;;4392312;32;20067;-74
2021/01/25 07:29:16;;;;;;;0.50;0.50;;;2.10;99.90;;;;;;4393470;32;20074;-74
2021/01/25 07:31:41;;;;;;;1.70;0.93;;;2.20;99.90;;;;;;4404916;32;20074;-74
2021/01/25 07:34:09;;;;;;;0.60;0.60;;;2.20;99.90;;;;;;4414886;32;20082;-74
2021/01/25 07:36:36;;;;;;;2.28;1.02;;;2.30;99.90;;;;;;4399427;32;20065;-74
2021/01/25 07:39:04;;;;;;;1.25;1.17;;;2.20;99.90;;;;;;4398485;32;20165;-74
2021/01/25 07:41:29;;;;;;;1.02;0.93;;;2.20;99.90;;;;;;4399369;32;20161;-74
2021/01/25 07:43:55;;;;;;;1.90;1.60;;;2.20;99.90;;;;;;4404363;32;20147;-74
2021/01/25 07:46:22;;;;;;;1.58;1.48;;;2.30;99.90;;;;;;4414186;32;20069;-74
2021/01/25 07:48:50;;;;;;;0.65;0.62;;;2.30;99.90;;;;;;4414039;32;20394;-74
2021/01/25 07:51:23;;;;;;;0.98;0.90;;;2.30;99.90;;;;;;4413546;32;20078;-74
2021/01/25 07:53:49;;;;;;;5.82;1.55;;;2.30;99.90;;;;;;4413803;32;20173;-74
2021/01/25 07:56:17;;;;;;;0.70;0.70;;;2.40;99.90;;;;;;4414465;32;20073;-74
2021/01/25 07:58:43;;;;;;;5.80;2.17;;;2.30;99.90;;;;;;4414485;32;20066;-74
2021/01/25 08:01:16;;;;;;;0.45;0.45;;;2.30;99.90;;;;;;4413896;32;20082;-74
2021/01/25 08:03:44;;;;;;;2.05;1.12;;;2.40;99.90;;;;;;4413934;32;20070;-74
2021/01/25 08:06:11;;;;;;;1.90;1.75;;;2.40;99.90;;;;;;4413963;32;20066;-74
2021/01/25 08:08:38;;;;;;;0.40;0.40;;;2.40;99.90;;;;;;4399895;32;20083;-74
2021/01/25 08:11:08;;;;;;;1.30;0.52;;;2.40;99.90;;;;;;4398782;32;20414;-74
2021/01/25 08:13:41;;;;;;;1.48;0.93;;;2.50;99.90;;;;;;4415018;32;20069;-74
2021/01/25 08:16:19;;;;;;;0.77;0.77;;;2.50;99.90;;;;;;4403162;32;20065;-74
2021/01/25 08:18:57;;;;;;;1.10;1.10;;;2.40;99.90;;;;;;4405256;32;20094;-76
2021/01/25 08:21:28;;;;;;;1.45;1.35;;;2.50;99.90;;;;;;4406244;32;20078;-76
2021/01/25 08:23:57;;;;;;;0.55;0.55;;;2.50;99.90;;;;;;4398691;32;20066;-74
2021/01/25 08:26:24;;;;;;;0.50;0.50;;;2.30;99.90;;;;;;4398300;32;20097;-74
2021/01/25 08:28:58;;;;;;;0.73;0.73;;;2.30;99.90;;;;;;4392874;32;20058;-75
2021/01/25 08:31:44;;;;;;;0.45;0.45;;;2.30;99.90;;;;;;4396551;32;20143;-75
2021/01/25 08:34:25;;;;;;;0.85;0.85;;;2.40;99.90;;;;;;4397769;32;20070;-75
2021/01/25 08:37:02;;;;;;;0.82;0.82;;;2.30;99.90;;;;;;4398214;32;20093;-73
2021/01/25 08:39:40;;;;;;;2.25;1.73;;;2.40;99.90;;;;;;4412902;32;20090;-74
2021/01/25 08:42:25;;;;;;;0.45;0.45;;;2.40;99.90;;;;;;4410798;32;96059;-75
2021/01/25 08:45:05;;;;;;;0.95;0.95;;;2.40;99.90;;;;;;4414904;32;20070;-74
2021/01/25 08:47:33;;;;;;;0.50;0.50;;;2.50;99.90;;;;;;4413977;32;20058;-74
2021/01/25 08:50:00;;;;;;;0.60;0.60;;;2.50;99.90;;;;;;4413974;32;20062;-74
2021/01/25 08:52:29;;;;;;;1.02;0.70;;;2.50;99.90;;;;;;4413044;32;20766;-75
2021/01/25 08:55:22;;;;;;;0.47;0.47;;;2.60;99.90;;;;;;4392738;32;20162;-74
2021/01/25 08:57:47;;;;;;;0.70;0.70;;;2.60;99.90;;;;;;4403448;32;20105;-73
2021/01/25 09:00:17;;;;;;;1.55;1.10;;;2.70;99.90;;;;;;4397072;32;20171;-75
2021/01/25 09:02:44;;;;;;;0.40;0.40;;;2.70;99.90;;;;;;4404971;32;20082;-74
2021/01/25 09:05:11;;;;;;;1.60;1.50;;;2.70;99.90;;;;;;4400574;32;20136;-74
2021/01/25 09:07:36;;;;;;;0.98;0.98;;;2.80;99.90;;;;;;4405159;32;20519;-74
2021/01/25 09:10:03;;;;;;;0.77;0.77;;;2.70;99.90;;;;;;4398210;32;20150;-73
2021/01/25 09:12:28;;;;;;;0.60;0.60;;;2.70;99.90;;;;;;4407379;32;20073;-73
2021/01/25 09:14:54;;;;;;;5.47;1.20;;;2.70;99.90;;;;;;4413024;32;20499;-73
2021/01/25 09:17:21;;;;;;;0.40;0.40;;;2.80;99.90;;;;;;4412806;32;20073;-74
2021/01/25 09:19:47;;;;;;;0.90;0.90;;;2.90;99.90;;;;;;4405765;32;20081;-74
2021/01/25 09:22:13;;;;;;;1.12;1.02;;;2.80;99.90;;;;;;4398578;32;20133;-74
2021/01/25 09:24:40;;;;;;;2.95;1.37;;;2.80;99.90;;;;;;4401245;32;20499;-74
2021/01/25 09:27:06;;;;;;;0.93;0.90;;;2.90;99.90;;;;;;4400325;32;20124;-74
2021/01/25 09:29:31;;;;;;;0.50;0.50;;;2.90;99.90;;;;;;4400682;32;20074;-74
2021/01/25 09:31:57;;;;;;;4.50;2.08;;;2.80;99.90;;;;;;4398880;32;20520;-74
2021/01/25 09:34:24;;;;;;;30.98;1.05;;;3.00;99.90;;;;;;4399260;32;20070;-74
2021/01/25 09:36:49;;;;;;;1.65;0.62;;;3.00;99.90;;;;;;4400909;32;20132;-73
2021/01/25 09:39:16;;;;;;;0.95;0.95;;;3.00;99.90;;;;;;4409858;32;20132;-74
2021/01/25 09:41:44;;;;;;;2.58;1.35;;;3.00;99.90;;;;;;4410723;32;20061;-74
2021/01/25 09:44:10;;;;;;;45.80;1.42;;;3.00;99.90;;;;;;4400372;32;20103;-73
2021/01/25 09:46:36;;;;;;;0.95;0.95;;;2.90;99.90;;;;;;4401959;32;20070;-73
2021/01/25 09:49:01;;;;;;;0.60;0.60;;;3.00;99.90;;;;;;4400598;32;20070;-73
2021/01/25 09:51:27;;;;;;;0.43;0.43;;;3.10;99.90;;;;;;4410915;32;20105;-76
2021/01/25 09:53:52;;;;;;;1.73;1.42;;;3.00;99.90;;;;;;4417019;32;20137;-76
2021/01/25 09:56:18;;;;;;;1.37;0.80;;;3.10;99.90;;;;;;4402553;32;20089;-74
2021/01/25 09:58:43;;;;;;;4.32;1.15;;;3.00;99.90;;;;;;4399784;32;20575;-75
2021/01/25 10:01:09;;;;;;;0.65;0.65;;;3.10;99.90;;;;;;4399641;32;20153;-75
2021/01/25 10:03:34;;;;;;;0.55;0.55;;;3.20;99.90;;;;;;4399127;32;20123;-73
2021/01/25 10:06:00;;;;;;;1.33;0.90;;;3.30;99.90;;;;;;4398884;32;20077;-75
2021/01/25 10:08:25;;;;;;;0.70;0.70;;;3.30;99.90;;;;;;4398397;32;20087;-74
2021/01/25 10:10:51;;;;;;;2.05;1.73;;;3.20;99.90;;;;;;4400010;32;20511;-74
2021/01/25 10:13:16;;;;;;;1.02;0.93;;;3.30;99.90;;;;;;4405017;32;20066;-75
2021/01/25 10:15:42;;;;;;;2.10;1.33;;;3.30;99.90;;;;;;4383220;32;20081;-75
2021/01/25 10:18:08;;;;;;;0.50;0.50;;;3.40;99.90;;;;;;4383044;32;20513;-74
2021/01/25 10:20:33;;;;;;;0.70;0.65;;;3.40;99.90;;;;;;4399923;32;20078;-75
2021/01/25 10:22:59;;;;;;;2.42;1.12;;;3.30;99.90;;;;;;4397751;32;20102;-75
2021/01/25 10:25:25;;;;;;;1.62;1.05;;;3.30;99.90;;;;;;4398955;32;20129;-76
2021/01/25 10:27:51;;;;;;;4.55;1.60;;;3.40;99.90;;;;;;4398012;32;20070;-75
2021/01/25 10:30:19;;;;;;;0.70;0.70;;;3.30;99.90;;;;;;4398195;32;20083;-75
2021/01/25 10:32:44;;;;;;;0.57;0.57;;;3.20;99.90;;;;;;4396553;32;20079;-74
2021/01/25 10:35:11;;;;;;;0.80;0.80;;;3.20;99.90;;;;;;4397212;32;20066;-73
2021/01/25 10:37:37;;;;;;;0.98;0.85;;;3.10;99.90;;;;;;4398846;32;20073;-73
2021/01/25 10:40:04;;;;;;;0.85;0.85;;;3.20;99.90;;;;;;4397331;32;20444;-71
2021/01/25 10:42:30;;;;;;;2.33;1.60;;;3.20;99.90;;;;;;4398735;32;20079;-73
2021/01/25 10:44:56;;;;;;;0.65;0.65;;;3.30;99.90;;;;;;4398215;32;20500;-72
2021/01/25 10:47:21;;;;;;;1.17;0.95;;;3.30;99.90;;;;;;4398616;32;20517;-72
2021/01/25 10:49:48;;;;;;;1.05;0.85;;;3.30;99.90;;;;;;4399648;32;20058;-73
2021/01/25 10:52:14;;;;;;;0.77;0.77;;;3.30;99.90;;;;;;4398842;32;20073;-73
2021/01/25 10:54:40;;;;;;;0.50;0.50;;;3.30;99.90;;;;;;4410576;32;20074;-75
2021/01/25 10:57:07;;;;;;;0.70;0.70;;;3.40;99.90;;;;;;4401818;32;20083;-73
2021/01/25 10:59:33;;;;;;;0.50;0.50;;;3.40;99.90;;;;;;4399130;32;20086;-72
2021/01/25 11:01:58;;;;;;;0.47;0.47;;;3.30;99.90;;;;;;4399555;32;20523;-73
2021/01/25 11:04:24;;;;;;;0.55;0.55;;;3.20;99.90;;;;;;4401694;32;20096;-74
2021/01/25 11:06:49;;;;;;;0.57;0.57;;;3.20;99.90;;;;;;4396797;32;20094;-72
2021/01/25 11:09:16;;;;;;;0.73;0.73;;;3.10;99.90;;;;;;4399194;32;20453;-73
2021/01/25 11:11:42;;;;;;;2.08;1.20;;;3.10;99.90;;;;;;4402550;32;20077;-73
2021/01/25 11:14:08;;;;;;;0.62;0.62;;;3.20;99.90;;;;;;4404846;32;20459;-72
2021/01/25 11:16:33;;;;;;;0.82;0.60;;;3.10;99.90;;;;;;4397395;32;20468;-74
2021/01/25 11:19:00;;;;;;;0.52;0.52;;;3.20;99.90;;;;;;4401892;32;20074;-74
2021/01/25 11:21:25;;;;;;;2.05;1.45;;;3.30;99.90;;;;;;4408385;32;20082;-72
2021/01/25 11:23:51;;;;;;;0.60;0.60;;;3.30;99.90;;;;;;4398307;32;20528;-73
2021/01/25 11:26:18;;;;;;;0.62;0.55;;;3.40;99.90;;;;;;4397327;32;20078;-73
2021/01/25 11:28:43;;;;;;;1.30;1.08;;;3.40;99.90;;;;;;4397170;32;20070;-73
2021/01/25 11:31:09;;;;;;;0.45;0.45;;;3.40;99.90;;;;;;4398233;32;20086;-74
2021/01/25 11:33:34;;;;;;;5.53;0.82;;;3.60;99.90;;;;;;4395329;32;20448;-74
2021/01/25 11:36:01;;;;;;;0.50;0.50;;;3.70;99.90;;;;;;4399459;32;20515;-73
2021/01/25 11:38:26;;;;;;;0.93;0.90;;;3.70;99.90;;;;;;4399998;32;20101;-74
2021/01/25 11:40:52;;;;;;;2.55;0.98;;;4.00;99.90;;;;;;4396323;32;20589;-74
2021/01/25 11:43:17;;;;;;;0.60;0.60;;;4.00;99.90;;;;;;4392801;32;20171;-73
2021/01/25 11:45:43;;;;;;;0.50;0.50;;;4.10;99.90;;;;;;4398901;32;20065;-73
2021/01/25 11:48:09;;;;;;;0.73;0.65;;;4.00;99.90;;;;;;4396372;32;20058;-73
2021/01/25 11:50:35;;;;;;;0.47;0.47;;;3.90;99.90;;;;;;4397251;32;20129;-72
2021/01/25 11:53:01;;;;;;;0.55;0.52;;;3.90;99.90;;;;;;4397911;32;20069;-73
2021/01/25 11:55:26;;;;;;;0.55;0.55;;;3.80;99.90;;;;;;4401028;32;20147;-73
2021/01/25 11:57:52;;;;;;;0.50;0.50;;;3.80;99.90;;;;;;4401821;32;20065;-73
2021/01/25 12:00:18;;;;;;;0.52;0.52;;;3.80;99.90;;;;;;4400699;32;20074;-73
2021/01/25 12:02:44;;;;;;;0.50;0.50;;;3.60;99.90;;;;;;4398572;32;20069;-73
2021/01/25 12:05:11;;;;;;;11.50;1.42;;;3.50;99.90;;;;;;4410214;32;20130;-73
2021/01/25 12:07:38;;;;;;;0.65;0.65;;;3.60;99.90;;;;;;4403057;32;20062;-73
2021/01/25 12:10:06;;;;;;;0.50;0.50;;;3.60;99.90;;;;;;4399310;32;20078;-73
2021/01/25 12:12:31;;;;;;;1.25;1.02;;;3.70;99.90;;;;;;4404040;32;20090;-74
2021/01/25 12:14:57;;;;;;;0.47;0.47;;;3.70;99.90;;;;;;4398554;32;20077;-74
2021/01/25 12:17:22;;;;;;;0.70;0.70;;;3.70;99.90;;;;;;4397923;32;20058;-74
2021/01/25 12:19:47;;;;;;;2.33;0.88;;;3.60;99.90;;;;;;4396544;32;20128;-73
2021/01/25 12:22:13;;;;;;;0.50;0.50;;;3.70;99.90;;;;;;4397662;32;20086;-74
2021/01/25 12:24:38;;;;;;;2.25;0.88;;;3.70;99.90;;;;;;4390490;32;20130;-74
2021/01/25 12:27:05;;;;;;;0.60;0.60;;;3.70;99.90;;;;;;4391425;32;20083;-74
2021/01/25 12:29:31;;;;;;;0.85;0.85;;;3.60;99.90;;;;;;4393696;32;20163;-73
2021/01/25 12:31:56;;;;;;;0.80;0.80;;;3.50;99.90;;;;;;4398682;32;20065;-73
2021/01/25 12:34:25;;;;;;;0.47;0.47;;;3.60;99.90;;;;;;4396575;32;20164;-74
2021/01/25 12:36:52;;;;;;;0.65;0.65;;;3.70;99.90;;;;;;4393738;32;20066;-73
2021/01/25 12:39:17;;;;;;;35.05;1.35;;;3.80;99.90;;;;;;4397138;32;20082;-74
2021/01/25 12:41:42;;;;;;;1.20;1.10;;;4.00;99.90;;;;;;4393700;32;20476;-74
2021/01/25 12:44:08;;;;;;;2.03;1.20;;;4.00;99.90;;;;;;4393335;32;20082;-74
2021/01/25 12:46:34;;;;;;;0.50;0.50;;;4.00;99.90;;;;;;4395293;32;20070;-74
2021/01/25 12:49:01;;;;;;;0.85;0.85;;;4.00;99.90;;;;;;4393481;32;20158;-74
2021/01/25 12:51:27;;;;;;;0.47;0.47;;;3.90;99.90;;;;;;4399246;32;20420;-74
2021/01/25 12:53:52;;;;;;;0.73;0.73;;;4.00;99.90;;;;;;4395341;32;20070;-75
2021/01/25 12:56:17;;;;;;;0.50;0.50;;;4.00;99.90;;;;;;4393510;32;20071;-77